createdAt,value
2022-10-29T00:01:15.575Z,0.10
2022-10-29T00:03:44.110Z,0.10
2022-10-29T00:06:13.533Z,0.10
2022-10-29T00:08:43.010Z,0.10
2022-10-29T00:11:15.598Z,0.00
2022-10-29T00:13:44.669Z,0.10
2022-10-29T00:16:20.397Z,0.10
2022-10-29T00:18:48.932Z,0.10
2022-10-29T00:21:20.088Z,0.10
2022-10-29T00:23:49.162Z,0.00
2022-10-29T00:26:19.033Z,0.10
2022-10-29T00:28:47.882Z,0.00
2022-10-29T00:31:20.153Z,0.10
2022-10-29T00:33:48.880Z,0.10
2022-10-29T00:36:20.056Z,0.00
2022-10-29T00:38:48.865Z,0.10
2022-10-29T00:41:20.071Z,0.10
2022-10-29T00:43:51.253Z,0.10
2022-10-29T00:46:35.149Z,0.10
2022-10-29T00:49:04.741Z,0.10
2022-10-29T00:51:34.287Z,0.10
2022-10-29T00:54:09.544Z,0.10
2022-10-29T00:56:42.426Z,0.00
2022-10-29T00:59:11.308Z,0.10
2022-10-29T01:01:40.523Z,0.10
2022-10-29T01:04:11.561Z,0.10
2022-10-29T01:06:41.979Z,0.10
2022-10-29T01:09:10.653Z,0.10
2022-10-29T01:12:13.266Z,0.10
2022-10-29T01:14:41.842Z,0.10
2022-10-29T01:17:40.441Z,0.10
2022-10-29T01:20:46.545Z,0.10
2022-10-29T01:23:41.179Z,0.10
2022-10-29T01:26:26.215Z,0.00
2022-10-29T01:29:22.990Z,0.10
2022-10-29T01:32:11.716Z,0.10
2022-10-29T01:35:14.233Z,0.10
2022-10-29T01:37:42.872Z,0.10
2022-10-29T01:40:34.448Z,0.10
2022-10-29T01:43:49.280Z,0.10
2022-10-29T01:46:23.180Z,0.10
2022-10-29T01:49:00.414Z,0.10
2022-10-29T01:51:32.304Z,0.10
2022-10-29T01:54:02.922Z,0.10
2022-10-29T01:56:31.547Z,0.10
2022-10-29T01:59:02.226Z,0.10
2022-10-29T02:02:08.956Z,0.10
2022-10-29T02:04:49.176Z,0.20
2022-10-29T02:07:23.426Z,0.10
2022-10-29T02:09:54.944Z,0.10
2022-10-29T02:12:38.094Z,0.10
2022-10-29T02:15:09.622Z,0.20
2022-10-29T02:17:38.435Z,0.20
2022-10-29T02:20:09.631Z,0.10
2022-10-29T02:22:38.269Z,0.10
2022-10-29T02:25:08.944Z,0.20
2022-10-29T02:27:37.634Z,0.10
2022-10-29T02:32:49.032Z,0.10
2022-10-29T02:35:17.380Z,0.20
2022-10-29T02:37:46.380Z,0.20
2022-10-29T02:40:15.209Z,0.10
2022-10-29T02:42:43.871Z,0.20
2022-10-29T02:45:12.239Z,0.20
2022-10-29T02:47:40.900Z,0.20
2022-10-29T02:50:10.087Z,0.20
2022-10-29T02:52:38.908Z,0.20
2022-10-29T02:55:07.989Z,0.20
2022-10-29T02:57:37.016Z,0.20
2022-10-29T03:00:06.995Z,0.20
2022-10-29T03:02:35.499Z,0.20
2022-10-29T03:05:04.229Z,0.10
2022-10-29T03:07:38.546Z,0.20
2022-10-29T03:10:08.508Z,0.20
2022-10-29T03:12:36.802Z,0.20
2022-10-29T03:15:05.177Z,0.20
2022-10-29T03:17:33.773Z,0.10
2022-10-29T03:20:02.156Z,0.20
2022-10-29T03:22:30.978Z,0.20
2022-10-29T03:25:00.169Z,0.20
2022-10-29T03:27:28.701Z,0.20
2022-10-29T03:29:56.913Z,0.20
2022-10-29T03:32:25.116Z,0.20
2022-10-29T03:34:57.408Z,0.10
2022-10-29T03:37:28.067Z,0.20
2022-10-29T03:39:56.358Z,0.20
2022-10-29T03:42:24.656Z,0.20
2022-10-29T03:44:53.546Z,0.20
2022-10-29T03:47:22.174Z,0.20
2022-10-29T03:49:50.707Z,0.20
2022-10-29T03:52:19.444Z,0.30
2022-10-29T03:54:48.046Z,0.20
2022-10-29T03:57:16.184Z,0.30
2022-10-29T03:59:46.001Z,0.20
2022-10-29T04:02:17.245Z,0.20
2022-10-29T04:04:45.496Z,0.20
2022-10-29T04:07:13.801Z,0.30
2022-10-29T04:09:42.363Z,0.20
2022-10-29T04:12:10.985Z,0.20
2022-10-29T04:14:44.492Z,0.20
2022-10-29T04:17:14.466Z,0.20
2022-10-29T04:19:43.249Z,0.20
2022-10-29T04:28:41.872Z,0.20
2022-10-29T04:30:36.724Z,0.20
2022-10-29T04:33:05.088Z,0.20
2022-10-29T04:35:33.191Z,0.30
2022-10-29T04:38:08.579Z,0.20
2022-10-29T04:40:37.355Z,0.20
2022-10-29T04:43:05.882Z,0.20
2022-10-29T04:45:34.586Z,0.10
2022-10-29T04:48:04.187Z,0.30
2022-10-29T04:50:33.231Z,0.20
2022-10-29T04:53:02.976Z,0.20
2022-10-29T04:55:31.804Z,0.20
2022-10-29T04:58:00.089Z,0.20
2022-10-29T05:00:28.430Z,0.40
2022-10-29T05:02:56.820Z,0.20
2022-10-29T05:05:25.439Z,0.20
2022-10-29T05:08:04.504Z,0.30
2022-10-29T05:10:36.426Z,0.20
2022-10-29T05:13:11.930Z,0.20
2022-10-29T05:15:41.035Z,0.20
2022-10-29T05:18:10.778Z,0.20
2022-10-29T05:20:38.886Z,0.30
2022-10-29T05:23:09.616Z,0.20
2022-10-29T05:25:39.697Z,0.20
2022-10-29T05:28:16.246Z,0.30
2022-10-29T05:30:44.849Z,0.20
2022-10-29T05:33:15.852Z,0.20
2022-10-29T05:35:45.022Z,0.20
2022-10-29T05:38:14.870Z,0.20
2022-10-29T05:40:45.860Z,0.30
2022-10-29T05:43:15.672Z,0.20
2022-10-29T05:45:44.640Z,0.20
2022-10-29T05:48:14.061Z,0.20
2022-10-29T05:50:42.830Z,0.10
2022-10-29T05:53:14.582Z,0.20
2022-10-29T05:55:43.864Z,0.30
2022-10-29T05:58:14.784Z,0.20
2022-10-29T06:00:45.279Z,0.30
2022-10-29T06:03:19.319Z,0.30
2022-10-29T06:08:33.075Z,0.20
2022-10-29T06:11:05.090Z,0.30
2022-10-29T06:13:33.505Z,0.30
2022-10-29T06:16:02.366Z,0.30
2022-10-29T06:18:31.166Z,0.30
2022-10-29T06:21:01.427Z,0.30
2022-10-29T06:23:32.916Z,0.40
2022-10-29T06:26:04.634Z,0.30
2022-10-29T06:28:34.729Z,0.40
2022-10-29T06:31:03.676Z,0.30
2022-10-29T06:33:32.398Z,0.30
2022-10-29T06:36:01.920Z,0.30
2022-10-29T06:38:30.278Z,0.30
2022-10-29T06:41:00.209Z,0.30
2022-10-29T06:43:28.901Z,0.30
2022-10-29T06:45:57.107Z,0.20
2022-10-29T06:48:25.343Z,0.30
2022-10-29T06:50:53.795Z,0.30
2022-10-29T06:53:22.517Z,0.30
2022-10-29T06:55:50.784Z,0.30
2022-10-29T06:58:22.258Z,0.30
2022-10-29T07:03:45.937Z,0.20
2022-10-29T07:06:18.017Z,0.30
2022-10-29T07:08:46.225Z,0.20
2022-10-29T07:11:15.437Z,0.20
2022-10-29T07:13:44.571Z,0.30
2022-10-29T07:16:13.316Z,0.20
2022-10-29T07:18:42.205Z,0.30
2022-10-29T07:21:10.941Z,0.30
2022-10-29T07:23:39.576Z,0.20
2022-10-29T07:26:08.102Z,0.30
2022-10-29T07:28:36.413Z,0.20
2022-10-29T07:31:04.735Z,0.30
2022-10-29T07:33:32.984Z,0.20
2022-10-29T07:36:01.334Z,0.20
2022-10-29T07:38:32.872Z,0.30
2022-10-29T07:41:01.883Z,0.20
2022-10-29T07:43:32.857Z,0.30
2022-10-29T07:46:04.381Z,0.20
2022-10-29T07:48:33.118Z,0.20
2022-10-29T07:51:02.783Z,0.40
2022-10-29T07:53:33.927Z,0.30
2022-10-29T07:56:02.877Z,0.40
2022-10-29T07:58:31.914Z,0.20
2022-10-29T08:01:01.683Z,0.20
2022-10-29T08:03:31.011Z,0.20
2022-10-29T08:06:03.088Z,0.20
2022-10-29T08:08:36.099Z,0.20
2022-10-29T08:11:06.044Z,0.20
2022-10-29T08:13:34.574Z,0.30
2022-10-29T08:16:03.021Z,0.30
2022-10-29T08:18:32.054Z,0.20
2022-10-29T08:21:04.319Z,0.20
2022-10-29T08:23:32.870Z,0.30
2022-10-29T08:26:04.634Z,0.20
2022-10-29T08:28:35.701Z,0.20
2022-10-29T08:31:04.719Z,0.20
2022-10-29T08:33:33.587Z,0.20
2022-10-29T08:36:02.341Z,0.30
2022-10-29T08:38:31.290Z,0.20
2022-10-29T08:41:50.794Z,0.20
2022-10-29T08:45:00.832Z,0.40
2022-10-29T08:47:31.859Z,0.20
2022-10-29T08:50:26.518Z,0.30
2022-10-29T08:53:21.894Z,0.20
2022-10-29T08:55:45.869Z,0.20
2022-10-29T08:58:23.003Z,0.10
2022-10-29T09:00:55.769Z,0.20
2022-10-29T09:03:25.338Z,0.30
2022-10-29T09:06:18.937Z,0.20
2022-10-29T09:09:16.489Z,0.20
2022-10-29T09:11:50.884Z,0.10
2022-10-29T09:14:36.778Z,0.20
2022-10-29T09:17:30.476Z,0.30
2022-10-29T09:20:28.034Z,0.30
2022-10-29T09:23:44.630Z,0.20
2022-10-29T09:26:32.307Z,0.20
2022-10-29T09:29:03.651Z,0.20
2022-10-29T09:31:43.353Z,0.20
2022-10-29T09:34:32.965Z,0.20
2022-10-29T09:37:06.026Z,0.20
2022-10-29T09:39:41.480Z,0.20
2022-10-29T09:42:14.127Z,0.30
2022-10-29T09:45:12.541Z,0.20
2022-10-29T09:47:57.610Z,0.30
2022-10-29T09:50:34.112Z,0.30
2022-10-29T09:53:03.262Z,0.20
2022-10-29T09:55:42.686Z,0.70
2022-10-29T09:58:43.772Z,0.30
2022-10-29T10:01:12.696Z,0.40
2022-10-29T10:03:56.834Z,0.30
2022-10-29T10:06:25.148Z,0.30
2022-10-29T10:09:07.555Z,0.30
2022-10-29T10:11:41.520Z,0.30
2022-10-29T10:14:21.823Z,0.30
2022-10-29T10:17:01.254Z,0.30
2022-10-29T10:19:32.825Z,0.30
2022-10-29T10:22:06.710Z,0.20
2022-10-29T10:24:37.879Z,0.30
2022-10-29T10:27:22.186Z,0.30
2022-10-29T10:30:06.760Z,0.30
2022-10-29T10:32:35.538Z,0.30
2022-10-29T10:35:03.973Z,0.30
2022-10-29T10:37:34.174Z,0.40
2022-10-29T10:40:06.936Z,0.30
2022-10-29T10:42:40.457Z,0.20
2022-10-29T10:45:25.115Z,0.30
2022-10-29T10:48:00.304Z,0.20
2022-10-29T10:50:35.002Z,0.30
2022-10-29T10:53:30.158Z,0.20
2022-10-29T10:55:59.079Z,0.30
2022-10-29T10:58:36.754Z,0.30
2022-10-29T11:01:07.593Z,0.30
2022-10-29T11:03:44.412Z,0.30
2022-10-29T11:06:41.330Z,0.30
2022-10-29T11:09:21.750Z,0.30
2022-10-29T11:12:08.445Z,0.30
2022-10-29T11:14:56.966Z,0.30
2022-10-29T11:17:30.361Z,0.50
2022-10-29T11:20:09.524Z,0.30
2022-10-29T11:23:06.829Z,0.30
2022-10-29T11:25:56.047Z,0.40
2022-10-29T11:28:42.527Z,0.30
2022-10-29T11:31:38.860Z,0.40
2022-10-29T11:34:17.415Z,0.30
2022-10-29T11:37:06.877Z,0.30
2022-10-29T11:39:53.416Z,0.30
2022-10-29T11:42:22.104Z,0.40
2022-10-29T11:44:50.905Z,0.40
2022-10-29T11:47:47.871Z,0.40
2022-10-29T11:50:33.074Z,0.40
2022-10-29T11:53:20.544Z,0.50
2022-10-29T11:56:24.647Z,0.40
2022-10-29T11:59:23.388Z,0.50
2022-10-29T12:02:22.875Z,0.50
2022-10-29T12:05:22.207Z,0.60
2022-10-29T12:08:22.954Z,0.50
2022-10-29T12:11:22.577Z,0.40
2022-10-29T12:13:57.306Z,0.40
2022-10-29T12:17:09.947Z,0.50
2022-10-29T12:19:43.260Z,0.50
2022-10-29T12:22:43.025Z,0.40
2022-10-29T12:25:41.819Z,0.40
2022-10-29T12:31:22.951Z,0.40
2022-10-29T12:34:32.562Z,0.50
2022-10-29T12:37:16.757Z,0.40
2022-10-29T12:40:17.041Z,0.40
2022-10-29T12:42:47.191Z,0.50
2022-10-29T12:45:43.439Z,0.40
2022-10-29T12:48:29.640Z,0.40
2022-10-29T12:51:19.293Z,0.50
2022-10-29T12:53:47.669Z,0.50
2022-10-29T12:56:17.768Z,0.50
2022-10-29T12:58:46.846Z,0.40
2022-10-29T13:01:49.960Z,0.50
2022-10-29T13:04:30.886Z,0.40
2022-10-29T13:07:22.698Z,0.50
2022-10-29T13:09:58.909Z,0.50
2022-10-29T13:13:06.472Z,0.50
2022-10-29T13:15:45.988Z,0.50
2022-10-29T13:18:14.598Z,0.80
2022-10-29T13:20:49.406Z,0.50
2022-10-29T13:23:24.333Z,0.60
2022-10-29T13:26:06.121Z,0.40
2022-10-29T13:28:37.278Z,0.50
2022-10-29T13:31:05.717Z,0.60
2022-10-29T13:33:34.089Z,0.50
2022-10-29T13:36:12.853Z,0.50
2022-10-29T13:39:07.854Z,0.50
2022-10-29T13:41:47.977Z,0.50
2022-10-29T13:44:26.005Z,0.50
2022-10-29T13:46:58.174Z,0.50
2022-10-29T13:49:30.535Z,0.50
2022-10-29T13:52:08.413Z,0.60
2022-10-29T13:54:36.715Z,0.50
2022-10-29T13:57:14.181Z,0.60
2022-10-29T13:59:59.155Z,0.50
2022-10-29T14:02:32.219Z,0.50
2022-10-29T14:05:30.973Z,0.50
2022-10-29T14:08:12.263Z,0.40
2022-10-29T14:10:43.644Z,0.50
2022-10-29T14:13:33.967Z,0.60
2022-10-29T14:16:08.757Z,0.60
2022-10-29T14:18:51.114Z,0.50
2022-10-29T14:21:23.507Z,0.60
2022-10-29T14:24:06.109Z,0.50
2022-10-29T14:26:37.937Z,0.50
2022-10-29T14:29:19.544Z,0.60
2022-10-29T14:31:49.874Z,0.50
2022-10-29T14:34:28.364Z,0.40
2022-10-29T14:37:06.593Z,0.50
2022-10-29T14:39:57.038Z,0.50
2022-10-29T14:42:38.659Z,0.40
2022-10-29T14:45:21.309Z,0.50
2022-10-29T14:47:54.823Z,0.50
2022-10-29T14:50:26.696Z,0.50
2022-10-29T14:53:02.249Z,0.50
2022-10-29T14:55:41.013Z,0.50
2022-10-29T14:58:21.742Z,0.50
2022-10-29T15:01:06.664Z,0.50
2022-10-29T15:03:37.274Z,0.40
2022-10-29T15:06:16.158Z,0.60
2022-10-29T15:08:57.608Z,0.70
2022-10-29T15:11:36.728Z,0.80
2022-10-29T15:14:25.083Z,0.40
2022-10-29T15:16:53.982Z,0.50
2022-10-29T15:19:23.891Z,0.50
2022-10-29T15:21:52.746Z,0.50
2022-10-29T15:24:25.525Z,0.40
2022-10-29T15:27:01.261Z,0.40
2022-10-29T15:29:39.273Z,0.60
2022-10-29T15:32:15.897Z,0.50
2022-10-29T15:34:57.024Z,0.50
2022-10-29T15:37:34.463Z,0.50
2022-10-29T15:40:06.346Z,0.50
2022-10-29T15:42:37.438Z,0.40
2022-10-29T15:45:08.834Z,0.40
2022-10-29T15:47:43.407Z,0.40
2022-10-29T15:50:15.074Z,0.40
2022-10-29T15:53:06.860Z,0.40
2022-10-29T15:55:41.477Z,0.50
2022-10-29T15:58:24.147Z,0.30
2022-10-29T16:00:53.114Z,0.40
2022-10-29T16:03:24.791Z,0.40
2022-10-29T16:06:00.630Z,0.40
2022-10-29T16:08:56.770Z,0.50
2022-10-29T16:11:26.301Z,0.50
2022-10-29T16:13:55.662Z,0.60
2022-10-29T16:16:26.286Z,0.40
2022-10-29T16:18:55.467Z,0.30
2022-10-29T16:21:26.010Z,0.30
2022-10-29T16:23:54.548Z,0.30
2022-10-29T16:26:25.843Z,0.30
2022-10-29T16:28:54.391Z,0.40
2022-10-29T16:31:25.458Z,0.30
2022-10-29T16:33:56.262Z,0.30
2022-10-29T16:36:25.603Z,0.30
2022-10-29T16:38:54.469Z,0.30
2022-10-29T16:41:23.599Z,0.30
2022-10-29T16:43:52.027Z,0.40
2022-10-29T16:46:20.511Z,0.40
2022-10-29T16:48:48.848Z,0.30
2022-10-29T16:51:17.171Z,0.30
2022-10-29T16:53:45.796Z,0.30
2022-10-29T16:56:14.382Z,0.40
2022-10-29T16:58:43.108Z,0.30
2022-10-29T17:01:12.189Z,0.30
2022-10-29T17:03:40.536Z,0.50
2022-10-29T17:06:10.740Z,0.40
2022-10-29T17:08:39.770Z,0.40
2022-10-29T17:11:11.228Z,0.40
2022-10-29T17:13:40.205Z,0.40
2022-10-29T17:16:17.847Z,0.40
2022-10-29T17:18:51.444Z,0.50
2022-10-29T17:21:20.116Z,0.40
2022-10-29T17:23:48.923Z,0.40
2022-10-29T17:26:17.805Z,0.40
2022-10-29T17:28:46.948Z,0.30
2022-10-29T17:31:15.574Z,0.40
2022-10-29T17:33:43.984Z,0.40
2022-10-29T17:36:14.816Z,0.30
2022-10-29T17:38:43.388Z,0.50
2022-10-29T17:41:11.773Z,0.50
2022-10-29T17:43:39.904Z,0.40
2022-10-29T17:46:08.126Z,0.40
2022-10-29T17:48:36.359Z,0.40
2022-10-29T17:51:04.772Z,0.30
2022-10-29T17:53:33.222Z,0.40
2022-10-29T17:56:02.734Z,0.40
2022-10-29T17:58:32.015Z,0.40
2022-10-29T18:01:08.597Z,0.60
2022-10-29T18:03:38.103Z,0.30
2022-10-29T18:06:09.326Z,0.30
2022-10-29T18:08:39.363Z,0.30
2022-10-29T18:11:21.441Z,0.30
2022-10-29T18:13:51.434Z,0.30
2022-10-29T18:16:22.437Z,0.30
2022-10-29T18:19:01.286Z,0.30
2022-10-29T18:21:30.527Z,0.30
2022-10-29T18:23:59.226Z,0.20
2022-10-29T18:26:32.502Z,0.20
2022-10-29T18:29:03.342Z,0.20
2022-10-29T18:31:33.307Z,0.20
2022-10-29T18:34:05.673Z,0.30
2022-10-29T18:36:36.279Z,0.20
2022-10-29T18:39:07.113Z,0.20
2022-10-29T18:41:36.881Z,0.30
2022-10-29T18:44:05.755Z,0.30
2022-10-29T18:46:34.960Z,0.30
2022-10-29T18:49:03.402Z,0.20
2022-10-29T18:51:33.851Z,0.30
2022-10-29T18:54:02.740Z,0.20
2022-10-29T18:56:34.349Z,0.20
2022-10-29T18:59:03.070Z,0.20
2022-10-29T19:01:35.208Z,0.30
2022-10-29T19:04:06.508Z,0.30
2022-10-29T19:06:39.081Z,0.30
2022-10-29T19:09:09.691Z,0.50
2022-10-29T19:11:38.762Z,0.20
2022-10-29T19:14:10.550Z,0.20
2022-10-29T19:16:41.942Z,0.30
2022-10-29T19:19:16.058Z,0.20
2022-10-29T19:21:46.759Z,0.20
2022-10-29T19:24:19.127Z,0.20
2022-10-29T19:26:47.444Z,0.20
2022-10-29T20:55:38.826Z,0.20
2022-10-29T20:58:07.361Z,0.20
2022-10-29T21:00:36.009Z,0.20
2022-10-29T21:03:04.453Z,0.20
2022-10-29T21:05:32.774Z,0.20
2022-10-29T21:08:03.721Z,0.10
2022-10-29T21:10:32.628Z,0.30
2022-10-29T21:13:05.389Z,0.20
2022-10-29T21:15:37.709Z,0.20
2022-10-29T21:18:06.797Z,0.20
2022-10-29T21:20:34.979Z,0.20
2022-10-29T21:23:03.942Z,0.20
2022-10-29T21:25:32.713Z,0.20
2022-10-29T21:28:04.190Z,0.30
2022-10-29T21:30:33.397Z,0.30
2022-10-29T21:33:02.245Z,0.30
2022-10-29T21:35:31.163Z,0.20
2022-10-29T21:40:42.330Z,0.20
2022-10-29T21:43:10.567Z,0.20
2022-10-29T21:45:39.581Z,0.20
2022-10-29T21:48:08.219Z,0.20
2022-10-29T21:50:37.214Z,0.40
2022-10-29T21:53:06.667Z,0.20
2022-10-29T21:55:36.136Z,0.30
2022-10-29T21:58:05.860Z,0.20
2022-10-29T22:00:34.770Z,0.20
2022-10-29T22:03:04.628Z,0.20
2022-10-29T22:05:33.541Z,0.20
2022-10-29T22:08:02.222Z,0.30
2022-10-29T22:10:31.306Z,0.20
2022-10-29T22:13:02.781Z,0.20
2022-10-29T22:15:31.755Z,0.20
2022-10-29T22:18:00.540Z,0.10
2022-10-29T22:20:29.152Z,0.20
2022-10-29T22:22:58.130Z,0.20
2022-10-29T22:25:26.826Z,0.20
2022-10-29T22:27:55.483Z,0.20
2022-10-29T22:30:23.990Z,0.10
2022-10-29T22:32:52.355Z,0.20
2022-10-29T22:35:21.354Z,0.20
2022-10-29T22:37:49.943Z,0.20
2022-10-29T22:40:18.463Z,0.10
2022-10-29T22:42:50.118Z,0.20
2022-10-29T22:45:19.089Z,0.20
2022-10-29T22:47:47.871Z,0.20
2022-10-29T22:50:16.009Z,0.10
2022-10-29T22:52:44.383Z,0.20
2022-10-29T22:55:13.387Z,0.20
2022-10-29T22:57:44.356Z,0.20
2022-10-29T23:00:13.782Z,0.20
2022-10-29T23:02:42.277Z,0.20
2022-10-29T23:05:11.075Z,0.10
2022-10-29T23:07:39.555Z,0.20
2022-10-29T23:10:08.559Z,0.20
2022-10-29T23:12:39.061Z,0.20
2022-10-29T23:15:09.462Z,0.20
2022-10-29T23:17:38.512Z,0.10
2022-10-29T23:20:07.163Z,0.10
2022-10-29T23:22:36.262Z,0.10
2022-10-29T23:25:04.920Z,0.10
2022-10-29T23:27:33.864Z,0.10
2022-10-29T23:30:03.083Z,0.20
2022-10-29T23:32:32.898Z,0.20
2022-10-29T23:35:01.585Z,0.10
2022-10-29T23:37:30.265Z,0.10
2022-10-29T23:40:01.037Z,0.10
2022-10-29T23:45:15.184Z,0.10
2022-10-29T23:47:43.828Z,0.10
2022-10-29T23:50:12.547Z,0.10
2022-10-29T23:52:41.372Z,0.10
2022-10-29T23:55:10.570Z,0.20
2022-10-29T23:57:39.410Z,0.10
